createdAt,value
2023-06-27T00:00:22.572Z,6.30
2023-06-27T00:03:08.776Z,6.20
2023-06-27T00:05:35.717Z,6.80
2023-06-27T00:08:01.814Z,6.60
2023-06-27T00:10:28.020Z,6.50
2023-06-27T00:12:54.256Z,7.00
2023-06-27T00:15:20.401Z,7.80
2023-06-27T00:17:46.603Z,7.20
2023-06-27T00:20:12.745Z,6.00
2023-06-27T00:22:41.289Z,6.90
2023-06-27T00:25:07.452Z,6.80
2023-06-27T00:27:33.575Z,7.00
2023-06-27T00:29:59.834Z,7.10
2023-06-27T00:32:26.024Z,6.90
2023-06-27T00:34:52.364Z,7.30
2023-06-27T00:37:18.483Z,7.30
2023-06-27T00:39:44.654Z,8.00
2023-06-27T00:42:10.843Z,7.70
2023-06-27T00:44:37.162Z,7.70
2023-06-27T00:47:03.531Z,6.90
2023-06-27T00:49:29.630Z,7.70
2023-06-27T00:51:55.952Z,9.10
2023-06-27T00:54:22.146Z,8.10
2023-06-27T00:56:49.446Z,8.40
2023-06-27T00:59:15.587Z,8.30
2023-06-27T01:01:42.697Z,7.80
2023-06-27T01:04:09.028Z,8.10
2023-06-27T01:06:35.126Z,6.90
2023-06-27T01:09:01.260Z,6.30
2023-06-27T01:11:27.695Z,6.60
2023-06-27T01:13:53.862Z,7.20
2023-06-27T01:16:20.560Z,7.60
2023-06-27T01:18:46.659Z,7.50
2023-06-27T01:21:13.206Z,7.80
2023-06-27T01:23:39.779Z,8.20
2023-06-27T01:26:05.973Z,7.30
2023-06-27T01:28:33.433Z,6.70
2023-06-27T01:31:00.248Z,7.40
2023-06-27T01:33:26.440Z,8.20
2023-06-27T01:35:52.592Z,6.70
2023-06-27T01:38:18.746Z,6.70
2023-06-27T01:40:44.919Z,7.60
2023-06-27T01:43:11.237Z,7.20
2023-06-27T01:45:37.610Z,7.60
2023-06-27T01:48:03.892Z,7.50
2023-06-27T01:50:30.086Z,8.30
2023-06-27T01:52:56.695Z,7.40
2023-06-27T01:55:22.830Z,6.50
2023-06-27T01:57:51.186Z,7.20
2023-06-27T02:00:17.468Z,6.40
2023-06-27T02:02:44.168Z,7.10
2023-06-27T02:05:10.483Z,6.20
2023-06-27T02:07:36.686Z,6.10
2023-06-27T02:10:03.034Z,5.30
2023-06-27T02:12:29.325Z,5.30
2023-06-27T02:14:55.549Z,5.10
2023-06-27T02:17:21.703Z,5.20
2023-06-27T02:19:47.849Z,4.70
2023-06-27T02:22:13.963Z,5.10
2023-06-27T02:24:40.069Z,4.70
2023-06-27T02:27:06.367Z,5.40
2023-06-27T02:29:32.662Z,5.50
2023-06-27T02:31:58.957Z,5.40
2023-06-27T02:34:25.234Z,4.70
2023-06-27T02:36:51.460Z,5.50
2023-06-27T02:39:17.638Z,4.80
2023-06-27T02:41:43.744Z,4.60
2023-06-27T02:44:09.974Z,5.00
2023-06-27T02:46:36.171Z,5.10
2023-06-27T02:49:02.295Z,4.70
2023-06-27T02:51:28.694Z,5.10
2023-06-27T02:53:55.061Z,5.10
2023-06-27T02:56:21.179Z,5.10
2023-06-27T02:58:47.533Z,5.20
2023-06-27T03:01:14.132Z,5.30
2023-06-27T03:03:40.424Z,5.60
2023-06-27T03:06:09.362Z,5.90
2023-06-27T03:08:35.986Z,5.70
2023-06-27T03:11:02.072Z,5.60
2023-06-27T03:13:28.256Z,5.90
2023-06-27T03:15:54.367Z,5.60
2023-06-27T03:18:20.458Z,5.70
2023-06-27T03:20:46.576Z,5.90
2023-06-27T03:23:12.835Z,6.40
2023-06-27T03:25:39.103Z,6.10
2023-06-27T03:28:05.597Z,5.90
2023-06-27T03:30:31.708Z,6.30
2023-06-27T03:32:58.062Z,6.30
2023-06-27T03:35:24.313Z,6.40
2023-06-27T03:37:51.576Z,5.10
2023-06-27T03:40:17.742Z,6.10
2023-06-27T03:42:43.903Z,6.30
2023-06-27T03:45:10.094Z,7.00
2023-06-27T03:47:36.355Z,6.70
2023-06-27T03:50:02.515Z,6.10
2023-06-27T03:52:28.675Z,7.40
2023-06-27T03:54:54.837Z,7.10
2023-06-27T03:57:21.028Z,6.90
2023-06-27T03:59:47.147Z,7.00
2023-06-27T04:02:13.415Z,6.80
2023-06-27T04:04:40.069Z,6.90
2023-06-27T04:07:06.262Z,6.90
2023-06-27T04:09:32.512Z,7.00
2023-06-27T04:12:01.700Z,6.10
2023-06-27T04:14:28.389Z,7.10
2023-06-27T04:16:54.625Z,5.90
2023-06-27T04:19:21.329Z,5.90
2023-06-27T04:21:47.523Z,6.40
2023-06-27T04:24:13.935Z,6.20
2023-06-27T04:26:42.852Z,6.80
2023-06-27T04:29:08.936Z,6.70
2023-06-27T04:31:35.130Z,6.10
2023-06-27T04:34:01.573Z,6.50
2023-06-27T04:36:27.851Z,6.50
2023-06-27T04:38:54.113Z,5.70
2023-06-27T04:41:20.257Z,5.90
2023-06-27T04:43:46.367Z,6.20
2023-06-27T04:46:12.447Z,7.20
2023-06-27T04:48:38.657Z,6.70
2023-06-27T04:51:05.042Z,6.50
2023-06-27T04:53:32.677Z,6.60
2023-06-27T04:55:59.038Z,6.40
2023-06-27T04:58:25.158Z,6.20
2023-06-27T05:00:52.395Z,5.80
2023-06-27T05:03:18.672Z,5.70
2023-06-27T05:05:44.823Z,6.00
2023-06-27T05:08:11.465Z,5.80
2023-06-27T05:10:37.640Z,5.20
2023-06-27T05:13:03.840Z,5.40
2023-06-27T05:15:30.031Z,6.00
2023-06-27T05:17:56.289Z,5.00
2023-06-27T05:20:23.088Z,5.20
2023-06-27T05:22:49.247Z,6.00
2023-06-27T05:25:15.445Z,5.30
2023-06-27T05:27:41.722Z,4.80
2023-06-27T05:30:07.810Z,5.30
2023-06-27T05:32:33.974Z,4.90
2023-06-27T05:35:00.276Z,5.50
2023-06-27T05:37:26.390Z,5.30
2023-06-27T05:39:52.589Z,4.80
2023-06-27T05:42:18.805Z,4.80
2023-06-27T05:44:44.905Z,4.50
2023-06-27T05:47:11.107Z,4.90
2023-06-27T05:49:37.386Z,4.60
2023-06-27T05:52:03.502Z,5.20
2023-06-27T05:54:29.691Z,4.80
2023-06-27T05:56:56.174Z,4.30
2023-06-27T05:59:22.251Z,3.90
2023-06-27T06:01:48.475Z,5.10
2023-06-27T06:04:14.723Z,4.60
2023-06-27T06:06:40.840Z,4.40
2023-06-27T06:09:07.122Z,4.20
2023-06-27T06:11:34.887Z,4.30
2023-06-27T06:14:01.283Z,4.20
2023-06-27T06:16:28.224Z,4.10
2023-06-27T06:18:54.343Z,4.30
2023-06-27T06:21:20.628Z,4.50
2023-06-27T06:23:46.825Z,4.60
2023-06-27T06:26:13.127Z,4.70
2023-06-27T06:28:39.471Z,4.80
2023-06-27T06:31:05.636Z,4.40
2023-06-27T06:33:31.817Z,4.40
2023-06-27T06:35:58.276Z,4.00
2023-06-27T06:38:24.462Z,4.30
2023-06-27T06:40:50.603Z,3.60
2023-06-27T06:43:16.986Z,3.50
2023-06-27T06:45:43.497Z,3.60
2023-06-27T06:48:09.839Z,3.50
2023-06-27T06:50:36.529Z,3.80
2023-06-27T06:53:02.769Z,4.00
2023-06-27T06:55:29.183Z,4.10
2023-06-27T06:57:55.323Z,3.80
2023-06-27T07:00:21.493Z,3.70
2023-06-27T07:02:47.846Z,3.90
2023-06-27T07:05:14.157Z,3.70
2023-06-27T07:07:40.295Z,3.80
2023-06-27T07:10:06.608Z,3.40
2023-06-27T07:12:33.346Z,3.40
2023-06-27T07:14:59.519Z,3.90
2023-06-27T07:17:26.924Z,3.60
2023-06-27T07:19:53.057Z,4.10
2023-06-27T07:22:20.752Z,3.50
2023-06-27T07:24:48.384Z,3.70
2023-06-27T07:27:14.600Z,3.40
2023-06-27T07:29:40.822Z,4.20
2023-06-27T07:32:07.487Z,3.20
2023-06-27T07:34:34.089Z,3.40
2023-06-27T07:37:00.439Z,2.80
2023-06-27T07:39:26.552Z,3.40
2023-06-27T07:41:52.869Z,3.20
2023-06-27T07:44:19.094Z,3.10
2023-06-27T07:46:45.281Z,2.90
2023-06-27T07:49:11.537Z,2.90
2023-06-27T07:51:37.821Z,3.10
2023-06-27T07:54:04.310Z,3.00
2023-06-27T07:56:30.413Z,3.20
2023-06-27T07:58:58.190Z,2.60
2023-06-27T08:01:24.804Z,3.20
2023-06-27T08:03:51.498Z,3.20
2023-06-27T08:06:17.705Z,3.50
2023-06-27T08:08:43.960Z,3.50
2023-06-27T08:11:10.302Z,3.20
2023-06-27T08:13:41.746Z,3.40
2023-06-27T08:16:07.898Z,3.50
2023-06-27T08:18:34.475Z,3.30
2023-06-27T08:21:00.905Z,3.60
2023-06-27T08:23:27.026Z,3.40
2023-06-27T08:25:54.550Z,3.80
2023-06-27T08:28:21.015Z,3.60
2023-06-27T08:30:47.189Z,3.60
2023-06-27T08:33:13.597Z,3.70
2023-06-27T08:35:39.929Z,4.30
2023-06-27T08:38:06.087Z,3.30
2023-06-27T08:40:32.213Z,3.50
2023-06-27T08:42:58.381Z,4.60
2023-06-27T08:45:24.544Z,4.00
2023-06-27T08:47:50.671Z,3.50
2023-06-27T08:50:18.139Z,3.50
2023-06-27T08:52:44.391Z,3.50
2023-06-27T08:55:10.713Z,3.70
2023-06-27T08:57:36.961Z,3.70
2023-06-27T09:00:12.497Z,3.30
2023-06-27T09:02:38.909Z,4.00
2023-06-27T09:05:05.359Z,4.00
2023-06-27T09:07:31.631Z,4.20
2023-06-27T09:09:57.905Z,3.40
2023-06-27T09:12:24.049Z,3.80
2023-06-27T09:14:50.198Z,3.40
2023-06-27T09:17:16.380Z,3.40
2023-06-27T09:19:42.841Z,3.60
2023-06-27T09:22:08.981Z,3.90
2023-06-27T09:24:40.870Z,2.90
2023-06-27T09:27:07.001Z,3.70
2023-06-27T09:29:33.112Z,4.10
2023-06-27T09:31:59.262Z,3.50
2023-06-27T09:34:25.498Z,3.90
2023-06-27T09:39:20.700Z,3.40
2023-06-27T09:41:46.838Z,3.40
2023-06-27T09:44:13.112Z,4.50
2023-06-27T09:46:40.684Z,3.50
2023-06-27T09:49:07.399Z,3.30
2023-06-27T09:51:33.612Z,3.30
2023-06-27T09:53:59.785Z,3.50
2023-06-27T09:56:26.001Z,3.70
2023-06-27T09:58:52.917Z,3.80
2023-06-27T10:01:19.104Z,4.30
2023-06-27T10:03:49.463Z,4.10
2023-06-27T10:06:16.476Z,4.30
2023-06-27T10:08:42.806Z,4.80
2023-06-27T10:11:11.103Z,4.60
2023-06-27T10:13:39.006Z,4.90
2023-06-27T10:16:05.184Z,4.00
2023-06-27T10:18:31.437Z,3.90
2023-06-27T10:20:57.781Z,4.20
2023-06-27T10:23:24.166Z,4.20
2023-06-27T10:25:50.365Z,4.20
2023-06-27T10:28:16.589Z,4.30
2023-06-27T10:30:43.098Z,4.70
2023-06-27T10:33:10.139Z,4.80
2023-06-27T10:35:36.258Z,4.30
2023-06-27T10:38:03.590Z,4.50
2023-06-27T10:40:31.974Z,4.70
2023-06-27T10:42:58.128Z,4.40
2023-06-27T10:45:24.348Z,4.80
2023-06-27T10:47:50.549Z,4.10
2023-06-27T10:50:16.947Z,4.60
2023-06-27T10:52:43.829Z,4.70
2023-06-27T10:55:10.020Z,4.40
2023-06-27T10:57:39.138Z,4.30
2023-06-27T11:00:07.753Z,4.50
2023-06-27T11:02:34.213Z,4.30
2023-06-27T11:05:00.942Z,4.90
2023-06-27T11:07:28.667Z,4.10
2023-06-27T11:09:55.619Z,4.40
2023-06-27T11:12:22.032Z,3.90
2023-06-27T11:14:48.705Z,4.40
2023-06-27T11:17:15.022Z,4.40
2023-06-27T11:19:42.755Z,4.80
2023-06-27T11:22:09.074Z,3.90
2023-06-27T11:24:35.970Z,3.80
2023-06-27T11:27:02.173Z,3.60
2023-06-27T11:29:28.402Z,3.60
2023-06-27T11:31:54.606Z,4.20
2023-06-27T11:34:21.145Z,3.90
2023-06-27T11:36:47.345Z,4.10
2023-06-27T11:39:13.621Z,4.00
2023-06-27T11:41:40.315Z,3.90
2023-06-27T11:44:06.488Z,3.00
2023-06-27T11:46:32.607Z,3.30
2023-06-27T11:48:58.965Z,3.60
2023-06-27T11:51:25.253Z,3.40
2023-06-27T11:53:51.468Z,3.60
2023-06-27T11:56:22.897Z,3.50
2023-06-27T11:58:52.905Z,3.10
2023-06-27T12:01:19.184Z,3.30
2023-06-27T12:03:45.400Z,3.60
2023-06-27T12:06:12.272Z,3.50
2023-06-27T12:08:38.530Z,3.80
2023-06-27T12:11:04.624Z,3.70
2023-06-27T12:13:31.094Z,3.50
2023-06-27T12:15:57.204Z,3.30
2023-06-27T12:18:30.898Z,3.10
2023-06-27T12:20:57.199Z,2.60
2023-06-27T12:23:23.546Z,2.90
2023-06-27T12:25:49.697Z,2.90
2023-06-27T12:28:16.137Z,2.40
2023-06-27T12:30:42.560Z,2.80
2023-06-27T12:33:08.916Z,2.50
2023-06-27T12:35:35.801Z,2.10
2023-06-27T12:38:01.915Z,2.70
2023-06-27T12:40:28.125Z,3.50
2023-06-27T12:42:54.335Z,2.70
2023-06-27T12:45:20.655Z,2.80
2023-06-27T12:47:46.897Z,3.00
2023-06-27T12:50:13.234Z,2.40
2023-06-27T12:52:39.840Z,8.10
2023-06-27T12:55:06.014Z,7.30
2023-06-27T12:57:32.397Z,3.00
2023-06-27T12:59:58.552Z,2.20
2023-06-27T13:02:24.989Z,2.10
2023-06-27T13:04:51.234Z,2.90
2023-06-27T13:07:18.106Z,2.90
2023-06-27T13:09:44.252Z,2.80
2023-06-27T13:12:10.831Z,2.50
2023-06-27T13:14:37.094Z,2.60
2023-06-27T13:17:03.727Z,2.80
2023-06-27T13:19:30.208Z,2.20
2023-06-27T13:21:56.368Z,2.40
2023-06-27T13:24:22.630Z,2.50
2023-06-27T13:26:48.856Z,2.40
2023-06-27T13:29:16.037Z,2.30
2023-06-27T13:31:42.558Z,2.10
2023-06-27T13:34:08.797Z,2.10
2023-06-27T13:36:34.973Z,2.10
2023-06-27T13:39:01.439Z,2.30
2023-06-27T13:41:27.890Z,2.10
2023-06-27T13:43:54.102Z,2.30
2023-06-27T13:46:20.588Z,2.40
2023-06-27T13:48:46.720Z,1.90
2023-06-27T13:51:12.822Z,2.20
2023-06-27T13:53:39.003Z,2.00
2023-06-27T13:56:05.173Z,1.90
2023-06-27T13:58:31.411Z,2.20
2023-06-27T14:00:59.491Z,2.30
2023-06-27T14:03:26.820Z,2.10
2023-06-27T14:05:53.315Z,1.80
2023-06-27T14:08:19.634Z,1.70
2023-06-27T14:10:46.201Z,2.30
2023-06-27T14:13:12.379Z,1.80
2023-06-27T14:15:38.762Z,2.20
2023-06-27T14:18:05.169Z,1.50
2023-06-27T14:20:31.467Z,2.20
2023-06-27T14:23:00.425Z,1.80
2023-06-27T14:25:27.031Z,3.60
2023-06-27T14:27:53.768Z,2.80
2023-06-27T14:30:20.115Z,2.40
2023-06-27T14:32:46.391Z,2.20
2023-06-27T14:35:12.653Z,2.40
2023-06-27T14:37:38.976Z,2.80
2023-06-27T14:40:05.102Z,2.30
2023-06-27T14:42:31.289Z,2.50
2023-06-27T14:44:57.688Z,2.40
2023-06-27T14:47:24.080Z,3.30
2023-06-27T14:49:50.298Z,3.70
2023-06-27T14:52:16.459Z,3.10
2023-06-27T14:54:42.676Z,3.00
2023-06-27T14:57:08.802Z,3.70
2023-06-27T14:59:34.986Z,3.00
2023-06-27T15:02:01.143Z,2.20
2023-06-27T15:04:27.719Z,2.10
2023-06-27T15:06:53.983Z,2.20
2023-06-27T15:09:20.751Z,2.20
2023-06-27T15:11:48.299Z,1.90
2023-06-27T15:14:14.539Z,2.20
2023-06-27T15:16:40.708Z,1.90
2023-06-27T15:19:06.844Z,1.90
2023-06-27T15:21:33.053Z,2.20
2023-06-27T15:23:59.742Z,2.30
2023-06-27T15:26:26.365Z,1.80
2023-06-27T15:28:54.242Z,1.90
2023-06-27T15:31:20.425Z,1.70
2023-06-27T15:33:46.811Z,1.60
2023-06-27T15:36:15.505Z,1.60
2023-06-27T15:38:41.892Z,1.70
2023-06-27T15:41:08.205Z,1.50
2023-06-27T15:43:36.075Z,1.70
2023-06-27T15:46:02.579Z,1.60
2023-06-27T15:48:28.782Z,1.40
2023-06-27T15:50:55.057Z,1.80
2023-06-27T15:53:21.220Z,1.50
2023-06-27T15:55:47.476Z,1.30
2023-06-27T15:58:13.782Z,1.60
2023-06-27T16:00:40.259Z,1.80
2023-06-27T16:03:07.126Z,2.10
2023-06-27T16:05:33.628Z,1.70
2023-06-27T16:08:00.102Z,1.50
2023-06-27T16:10:26.690Z,1.10
2023-06-27T16:12:52.872Z,1.30
2023-06-27T16:15:19.084Z,1.30
2023-06-27T16:17:45.349Z,1.40
2023-06-27T16:20:11.522Z,1.20
2023-06-27T16:22:37.794Z,1.20
2023-06-27T16:25:04.146Z,1.40
2023-06-27T16:27:30.560Z,1.20
2023-06-27T16:29:56.863Z,1.60
2023-06-27T16:32:23.078Z,1.40
2023-06-27T16:34:49.251Z,2.10
2023-06-27T16:37:16.082Z,1.60
2023-06-27T16:39:42.410Z,1.30
2023-06-27T16:42:08.556Z,1.30
2023-06-27T16:44:34.734Z,1.80
2023-06-27T16:47:00.950Z,1.50
2023-06-27T16:49:27.421Z,1.70
2023-06-27T16:51:53.803Z,2.00
2023-06-27T16:54:20.841Z,1.90
2023-06-27T16:56:46.963Z,2.10
2023-06-27T16:59:13.173Z,1.70
2023-06-27T17:01:39.337Z,1.60
2023-06-27T17:04:05.423Z,1.60
2023-06-27T17:06:31.885Z,1.70
2023-06-27T17:08:58.106Z,1.40
2023-06-27T17:11:25.666Z,1.70
2023-06-27T17:13:52.182Z,2.20
2023-06-27T17:16:18.341Z,2.70
2023-06-27T17:18:44.486Z,2.50
2023-06-27T17:21:10.674Z,2.10
2023-06-27T17:23:36.913Z,2.10
2023-06-27T17:26:03.117Z,2.30
2023-06-27T17:28:29.536Z,4.70
2023-06-27T17:30:56.133Z,2.50
2023-06-27T17:33:22.366Z,2.20
2023-06-27T17:35:48.642Z,3.30
2023-06-27T17:38:14.728Z,2.60
2023-06-27T17:40:41.074Z,2.10
2023-06-27T17:43:07.233Z,1.90
2023-06-27T17:45:33.344Z,2.00
2023-06-27T17:47:59.542Z,1.70
2023-06-27T17:50:25.914Z,1.50
2023-06-27T17:52:53.775Z,2.00
2023-06-27T17:55:20.548Z,1.70
2023-06-27T17:57:46.774Z,1.80
2023-06-27T18:00:12.899Z,2.00
2023-06-27T18:02:39.334Z,1.90
2023-06-27T18:05:05.840Z,1.80
2023-06-27T18:07:38.016Z,1.90
2023-06-27T18:10:05.358Z,1.80
2023-06-27T18:12:31.654Z,1.80
2023-06-27T18:14:57.867Z,2.00
2023-06-27T18:17:24.100Z,2.10
2023-06-27T18:19:50.280Z,1.80
2023-06-27T18:22:16.445Z,2.10
2023-06-27T18:24:42.748Z,2.00
2023-06-27T18:27:09.493Z,1.90
2023-06-27T18:29:35.870Z,1.90
2023-06-27T18:32:02.163Z,1.90
2023-06-27T18:34:28.425Z,1.90
2023-06-27T18:36:54.558Z,1.90
2023-06-27T18:39:20.776Z,2.00
2023-06-27T18:41:47.357Z,1.70
2023-06-27T18:44:13.489Z,1.90
2023-06-27T18:46:40.157Z,1.60
2023-06-27T18:49:06.720Z,2.20
2023-06-27T18:51:32.853Z,1.90
2023-06-27T18:53:59.258Z,2.00
2023-06-27T18:56:25.978Z,2.20
2023-06-27T18:58:52.248Z,2.30
2023-06-27T19:01:18.467Z,2.50
2023-06-27T19:03:44.722Z,2.20
2023-06-27T19:06:12.905Z,2.30
2023-06-27T19:08:40.092Z,2.00
2023-06-27T19:11:06.487Z,2.00
2023-06-27T19:13:32.695Z,2.40
2023-06-27T19:15:59.031Z,2.20
2023-06-27T19:18:25.982Z,2.20
2023-06-27T19:20:52.643Z,2.60
2023-06-27T19:23:19.492Z,2.30
2023-06-27T19:25:47.016Z,3.50
2023-06-27T19:28:13.409Z,2.70
2023-06-27T19:30:40.049Z,2.70
2023-06-27T19:33:06.701Z,2.30
2023-06-27T19:35:33.419Z,2.10
2023-06-27T19:37:59.739Z,2.60
2023-06-27T19:40:27.768Z,3.50
2023-06-27T19:42:53.930Z,3.80
2023-06-27T19:45:20.152Z,4.70
2023-06-27T19:47:47.138Z,6.20
2023-06-27T19:50:13.497Z,6.20
2023-06-27T19:52:39.707Z,3.80
2023-06-27T19:55:05.969Z,3.40
2023-06-27T19:57:32.126Z,2.60
2023-06-27T19:59:58.437Z,2.70
2023-06-27T20:02:27.695Z,3.10
2023-06-27T20:04:54.138Z,2.60
2023-06-27T20:07:20.392Z,2.50
2023-06-27T20:09:47.010Z,3.40
2023-06-27T20:12:13.244Z,3.50
2023-06-27T20:14:39.773Z,3.10
2023-06-27T20:17:05.961Z,3.80
2023-06-27T20:19:32.173Z,4.60
2023-06-27T20:21:58.327Z,4.40
2023-06-27T20:24:24.552Z,4.00
2023-06-27T20:26:50.748Z,4.30
2023-06-27T20:29:16.918Z,3.40
2023-06-27T20:31:43.417Z,3.00
2023-06-27T20:34:09.969Z,2.70
2023-06-27T20:36:36.265Z,2.20
2023-06-27T20:39:02.473Z,2.50
2023-06-27T20:41:28.741Z,2.50
2023-06-27T20:43:56.308Z,2.70
2023-06-27T20:46:22.447Z,3.10
2023-06-27T20:48:49.867Z,2.70
2023-06-27T20:51:16.005Z,9.80
2023-06-27T20:53:42.322Z,21.00
2023-06-27T20:56:08.545Z,6.40
2023-06-27T20:58:34.667Z,3.30
2023-06-27T21:01:00.918Z,2.50
2023-06-27T21:03:27.400Z,3.00
2023-06-27T21:05:53.909Z,3.40
2023-06-27T21:08:20.077Z,2.30
2023-06-27T21:10:46.339Z,1.90
2023-06-27T21:13:12.639Z,2.40
2023-06-27T21:15:38.852Z,2.00
2023-06-27T21:18:04.990Z,1.80
2023-06-27T21:20:31.491Z,1.70
2023-06-27T21:22:58.164Z,1.60
2023-06-27T21:25:24.313Z,1.40
2023-06-27T21:27:52.206Z,1.40
2023-06-27T21:30:18.866Z,1.70
2023-06-27T21:32:45.180Z,1.60
2023-06-27T21:35:11.448Z,1.80
2023-06-27T21:37:37.606Z,1.80
2023-06-27T21:40:03.861Z,1.80
2023-06-27T21:42:29.983Z,1.90
2023-06-27T21:44:56.176Z,1.90
2023-06-27T21:47:22.328Z,2.20
2023-06-27T21:49:48.522Z,1.80
2023-06-27T21:52:14.641Z,2.10
2023-06-27T21:54:40.883Z,1.40
2023-06-27T21:57:08.056Z,1.50
2023-06-27T21:59:34.265Z,1.80
2023-06-27T22:02:00.415Z,1.70
2023-06-27T22:04:26.877Z,2.80
2023-06-27T22:06:53.614Z,2.00
2023-06-27T22:09:19.856Z,2.10
2023-06-27T22:11:46.051Z,1.60
2023-06-27T22:14:12.232Z,2.00
2023-06-27T22:16:38.383Z,1.60
2023-06-27T22:19:04.596Z,1.50
2023-06-27T22:21:30.809Z,1.60
2023-06-27T22:23:57.323Z,1.80
2023-06-27T22:26:23.437Z,2.40
2023-06-27T22:28:49.604Z,2.20
2023-06-27T22:31:15.732Z,2.10
2023-06-27T22:33:42.235Z,2.00
2023-06-27T22:36:08.464Z,2.10
2023-06-27T22:38:34.628Z,1.90
2023-06-27T22:41:00.843Z,2.00
2023-06-27T22:43:27.082Z,1.80
2023-06-27T22:45:53.270Z,1.80
2023-06-27T22:48:19.450Z,1.70
2023-06-27T22:50:45.578Z,1.80
2023-06-27T22:53:11.779Z,1.80
2023-06-27T22:55:38.037Z,1.70
2023-06-27T22:58:04.273Z,1.70
2023-06-27T23:00:31.118Z,1.50
2023-06-27T23:02:57.219Z,1.50
2023-06-27T23:05:23.701Z,1.70
2023-06-27T23:07:49.884Z,1.70
2023-06-27T23:10:16.254Z,1.60
2023-06-27T23:12:42.438Z,22.20
2023-06-27T23:15:08.637Z,20.40
2023-06-27T23:17:37.523Z,2.50
2023-06-27T23:20:08.825Z,1.90
2023-06-27T23:22:37.318Z,1.60
2023-06-27T23:25:05.288Z,1.80
2023-06-27T23:27:33.342Z,1.30
2023-06-27T23:30:00.758Z,1.40
2023-06-27T23:32:30.454Z,1.40
2023-06-27T23:34:56.865Z,1.20
2023-06-27T23:37:22.963Z,1.20
2023-06-27T23:39:49.199Z,1.30
2023-06-27T23:42:15.365Z,1.70
2023-06-27T23:44:41.839Z,1.40
2023-06-27T23:47:07.981Z,1.50
2023-06-27T23:49:34.158Z,1.50
2023-06-27T23:52:00.318Z,1.50
2023-06-27T23:54:28.183Z,1.50
2023-06-27T23:56:55.246Z,2.00
2023-06-27T23:59:21.405Z,1.80
